sensor_id;sensor_type;location;lat;lon;timestamp;P1;durP1;ratioP1;P2;durP2;ratioP2
17197;SDS011;8715;51.010;6.812;2023-10-13T00:02:43;949.58;;;878.28;;
17197;SDS011;8715;51.010;6.812;2023-10-13T00:05:29;949.88;;;877.97;;
17197;SDS011;8715;51.010;6.812;2023-10-13T00:08:15;946.60;;;875.25;;
17197;SDS011;8715;51.010;6.812;2023-10-13T00:11:02;940.72;;;870.75;;
17197;SDS011;8715;51.010;6.812;2023-10-13T00:13:48;947.33;;;875.60;;
17197;SDS011;8715;51.010;6.812;2023-10-13T00:16:35;949.20;;;877.60;;
17197;SDS011;8715;51.010;6.812;2023-10-13T00:19:22;950.03;;;878.00;;
17197;SDS011;8715;51.010;6.812;2023-10-13T00:22:08;949.00;;;877.22;;
17197;SDS011;8715;51.010;6.812;2023-10-13T00:24:54;950.38;;;878.75;;
17197;SDS011;8715;51.010;6.812;2023-10-13T00:27:43;947.83;;;876.10;;
17197;SDS011;8715;51.010;6.812;2023-10-13T00:30:28;951.78;;;879.78;;
17197;SDS011;8715;51.010;6.812;2023-10-13T00:33:17;950.28;;;878.47;;
17197;SDS011;8715;51.010;6.812;2023-10-13T00:36:03;947.90;;;876.03;;
17197;SDS011;8715;51.010;6.812;2023-10-13T00:41:37;942.88;;;872.83;;
17197;SDS011;8715;51.010;6.812;2023-10-13T00:44:36;947.42;;;876.28;;
17197;SDS011;8715;51.010;6.812;2023-10-13T00:47:26;947.72;;;876.08;;
17197;SDS011;8715;51.010;6.812;2023-10-13T00:50:32;946.05;;;874.88;;
17197;SDS011;8715;51.010;6.812;2023-10-13T00:53:20;943.85;;;872.83;;
17197;SDS011;8715;51.010;6.812;2023-10-13T00:56:05;944.17;;;873.03;;
17197;SDS011;8715;51.010;6.812;2023-10-13T00:58:51;943.08;;;872.13;;
17197;SDS011;8715;51.010;6.812;2023-10-13T01:01:38;947.17;;;875.22;;
17197;SDS011;8715;51.010;6.812;2023-10-13T01:04:26;951.25;;;879.22;;
17197;SDS011;8715;51.010;6.812;2023-10-13T01:07:14;948.03;;;876.75;;
17197;SDS011;8715;51.010;6.812;2023-10-13T01:09:59;947.30;;;875.65;;
17197;SDS011;8715;51.010;6.812;2023-10-13T01:12:43;947.90;;;876.90;;
17197;SDS011;8715;51.010;6.812;2023-10-13T01:15:30;946.53;;;875.25;;
17197;SDS011;8715;51.010;6.812;2023-10-13T01:18:18;949.28;;;877.53;;
17197;SDS011;8715;51.010;6.812;2023-10-13T01:21:04;949.10;;;877.67;;
17197;SDS011;8715;51.010;6.812;2023-10-13T01:23:52;947.50;;;875.97;;
17197;SDS011;8715;51.010;6.812;2023-10-13T01:26:38;951.03;;;879.35;;
17197;SDS011;8715;51.010;6.812;2023-10-13T01:29:22;946.53;;;875.50;;
17197;SDS011;8715;51.010;6.812;2023-10-13T01:32:12;948.10;;;876.65;;
17197;SDS011;8715;51.010;6.812;2023-10-13T01:34:56;951.10;;;879.42;;
17197;SDS011;8715;51.010;6.812;2023-10-13T01:37:49;946.05;;;874.63;;
17197;SDS011;8715;51.010;6.812;2023-10-13T01:40:34;951.05;;;879.22;;
17197;SDS011;8715;51.010;6.812;2023-10-13T01:43:20;942.15;;;871.20;;
17197;SDS011;8715;51.010;6.812;2023-10-13T01:46:04;949.97;;;878.47;;
17197;SDS011;8715;51.010;6.812;2023-10-13T01:48:49;949.13;;;877.63;;
17197;SDS011;8715;51.010;6.812;2023-10-13T01:51:38;943.60;;;872.80;;
17197;SDS011;8715;51.010;6.812;2023-10-13T01:54:23;946.95;;;875.38;;
17197;SDS011;8715;51.010;6.812;2023-10-13T01:57:10;950.50;;;878.88;;
17197;SDS011;8715;51.010;6.812;2023-10-13T01:59:57;945.28;;;873.83;;
17197;SDS011;8715;51.010;6.812;2023-10-13T02:02:52;947.30;;;876.17;;
17197;SDS011;8715;51.010;6.812;2023-10-13T02:05:36;945.25;;;874.15;;
17197;SDS011;8715;51.010;6.812;2023-10-13T02:08:23;944.72;;;874.00;;
17197;SDS011;8715;51.010;6.812;2023-10-13T02:11:08;941.80;;;870.78;;
17197;SDS011;8715;51.010;6.812;2023-10-13T02:13:54;951.28;;;879.63;;
17197;SDS011;8715;51.010;6.812;2023-10-13T02:16:40;946.13;;;874.75;;
17197;SDS011;8715;51.010;6.812;2023-10-13T02:19:26;945.13;;;874.08;;
17197;SDS011;8715;51.010;6.812;2023-10-13T02:22:11;951.38;;;879.55;;
17197;SDS011;8715;51.010;6.812;2023-10-13T02:25:09;947.90;;;876.28;;
17197;SDS011;8715;51.010;6.812;2023-10-13T02:28:00;942.50;;;871.90;;
17197;SDS011;8715;51.010;6.812;2023-10-13T02:30:47;947.95;;;876.58;;
17197;SDS011;8715;51.010;6.812;2023-10-13T02:33:34;946.67;;;875.83;;
17197;SDS011;8715;51.010;6.812;2023-10-13T02:36:18;948.78;;;877.40;;
17197;SDS011;8715;51.010;6.812;2023-10-13T02:39:06;946.05;;;874.75;;
17197;SDS011;8715;51.010;6.812;2023-10-13T02:41:51;947.17;;;875.75;;
17197;SDS011;8715;51.010;6.812;2023-10-13T02:44:39;949.00;;;877.00;;
17197;SDS011;8715;51.010;6.812;2023-10-13T02:47:29;952.42;;;880.38;;
17197;SDS011;8715;51.010;6.812;2023-10-13T02:50:15;943.72;;;872.83;;
17197;SDS011;8715;51.010;6.812;2023-10-13T02:53:01;947.38;;;875.92;;
17197;SDS011;8715;51.010;6.812;2023-10-13T02:55:50;946.60;;;875.10;;
17197;SDS011;8715;51.010;6.812;2023-10-13T02:58:36;946.55;;;874.92;;
17197;SDS011;8715;51.010;6.812;2023-10-13T03:01:23;948.38;;;876.72;;
17197;SDS011;8715;51.010;6.812;2023-10-13T03:04:13;951.55;;;879.83;;
17197;SDS011;8715;51.010;6.812;2023-10-13T03:06:57;943.53;;;872.03;;
17197;SDS011;8715;51.010;6.812;2023-10-13T03:09:43;946.17;;;874.80;;
17197;SDS011;8715;51.010;6.812;2023-10-13T03:12:34;948.40;;;877.47;;
17197;SDS011;8715;51.010;6.812;2023-10-13T03:15:20;951.25;;;879.13;;
17197;SDS011;8715;51.010;6.812;2023-10-13T03:18:13;944.45;;;873.50;;
17197;SDS011;8715;51.010;6.812;2023-10-13T03:21:03;942.92;;;871.53;;
17197;SDS011;8715;51.010;6.812;2023-10-13T03:23:47;950.58;;;878.90;;
17197;SDS011;8715;51.010;6.812;2023-10-13T03:26:32;947.03;;;875.88;;
17197;SDS011;8715;51.010;6.812;2023-10-13T03:29:21;948.65;;;876.63;;
17197;SDS011;8715;51.010;6.812;2023-10-13T03:32:08;950.22;;;878.20;;
17197;SDS011;8715;51.010;6.812;2023-10-13T03:34:56;945.72;;;874.35;;
17197;SDS011;8715;51.010;6.812;2023-10-13T03:37:56;947.22;;;875.55;;
17197;SDS011;8715;51.010;6.812;2023-10-13T03:40:42;949.95;;;878.13;;
17197;SDS011;8715;51.010;6.812;2023-10-13T03:43:32;949.95;;;877.80;;
17197;SDS011;8715;51.010;6.812;2023-10-13T03:46:28;949.55;;;877.45;;
17197;SDS011;8715;51.010;6.812;2023-10-13T03:49:14;946.05;;;874.88;;
17197;SDS011;8715;51.010;6.812;2023-10-13T03:52:05;948.45;;;877.10;;
17197;SDS011;8715;51.010;6.812;2023-10-13T03:54:56;949.58;;;877.30;;
17197;SDS011;8715;51.010;6.812;2023-10-13T03:57:42;949.55;;;877.70;;
17197;SDS011;8715;51.010;6.812;2023-10-13T04:00:29;947.55;;;875.72;;
17197;SDS011;8715;51.010;6.812;2023-10-13T04:03:15;944.40;;;873.17;;
17197;SDS011;8715;51.010;6.812;2023-10-13T04:06:04;950.90;;;878.80;;
17197;SDS011;8715;51.010;6.812;2023-10-13T04:08:51;946.28;;;874.38;;
17197;SDS011;8715;51.010;6.812;2023-10-13T04:11:52;947.05;;;875.65;;
17197;SDS011;8715;51.010;6.812;2023-10-13T04:14:54;950.97;;;878.72;;
17197;SDS011;8715;51.010;6.812;2023-10-13T04:17:53;948.88;;;876.60;;
17197;SDS011;8715;51.010;6.812;2023-10-13T04:20:38;948.22;;;876.47;;
17197;SDS011;8715;51.010;6.812;2023-10-13T04:23:23;950.88;;;878.67;;
17197;SDS011;8715;51.010;6.812;2023-10-13T04:26:10;948.33;;;875.58;;
17197;SDS011;8715;51.010;6.812;2023-10-13T04:29:06;950.88;;;878.78;;
17197;SDS011;8715;51.010;6.812;2023-10-13T04:31:55;947.97;;;876.20;;
17197;SDS011;8715;51.010;6.812;2023-10-13T04:34:41;951.33;;;879.20;;
17197;SDS011;8715;51.010;6.812;2023-10-13T04:37:29;947.03;;;875.22;;
17197;SDS011;8715;51.010;6.812;2023-10-13T04:40:17;946.40;;;874.42;;
17197;SDS011;8715;51.010;6.812;2023-10-13T04:43:03;947.85;;;875.80;;
17197;SDS011;8715;51.010;6.812;2023-10-13T04:46:10;952.47;;;880.45;;
17197;SDS011;8715;51.010;6.812;2023-10-13T04:49:08;946.53;;;875.17;;
17197;SDS011;8715;51.010;6.812;2023-10-13T04:52:10;949.47;;;877.63;;
17197;SDS011;8715;51.010;6.812;2023-10-13T04:54:57;952.38;;;880.15;;
17197;SDS011;8715;51.010;6.812;2023-10-13T04:57:53;946.25;;;874.25;;
17197;SDS011;8715;51.010;6.812;2023-10-13T05:00:54;949.28;;;877.30;;
17197;SDS011;8715;51.010;6.812;2023-10-13T05:04:02;952.58;;;880.55;;
17197;SDS011;8715;51.010;6.812;2023-10-13T05:07:05;953.17;;;880.78;;
17197;SDS011;8715;51.010;6.812;2023-10-13T05:10:08;948.28;;;875.88;;
17197;SDS011;8715;51.010;6.812;2023-10-13T05:13:11;946.72;;;874.50;;
17197;SDS011;8715;51.010;6.812;2023-10-13T05:16:14;948.33;;;876.35;;
17197;SDS011;8715;51.010;6.812;2023-10-13T05:19:18;951.67;;;879.28;;
17197;SDS011;8715;51.010;6.812;2023-10-13T05:22:21;949.88;;;877.50;;
17197;SDS011;8715;51.010;6.812;2023-10-13T05:25:24;951.78;;;879.35;;
17197;SDS011;8715;51.010;6.812;2023-10-13T05:28:27;951.45;;;878.88;;
17197;SDS011;8715;51.010;6.812;2023-10-13T05:31:30;954.10;;;881.38;;
17197;SDS011;8715;51.010;6.812;2023-10-13T05:34:34;953.38;;;880.25;;
17197;SDS011;8715;51.010;6.812;2023-10-13T05:37:37;952.13;;;880.13;;
17197;SDS011;8715;51.010;6.812;2023-10-13T05:40:40;949.78;;;877.60;;
17197;SDS011;8715;51.010;6.812;2023-10-13T05:43:47;950.13;;;877.78;;
17197;SDS011;8715;51.010;6.812;2023-10-13T05:46:51;951.97;;;878.85;;
17197;SDS011;8715;51.010;6.812;2023-10-13T05:49:54;952.15;;;879.17;;
17197;SDS011;8715;51.010;6.812;2023-10-13T05:52:49;952.17;;;879.30;;
17197;SDS011;8715;51.010;6.812;2023-10-13T05:55:52;948.72;;;875.67;;
17197;SDS011;8715;51.010;6.812;2023-10-13T05:59:13;951.97;;;879.45;;
17197;SDS011;8715;51.010;6.812;2023-10-13T06:02:17;950.13;;;876.85;;
17197;SDS011;8715;51.010;6.812;2023-10-13T06:05:22;953.67;;;880.67;;
17197;SDS011;8715;51.010;6.812;2023-10-13T06:08:25;953.10;;;880.10;;
17197;SDS011;8715;51.010;6.812;2023-10-13T06:11:28;956.10;;;882.92;;
17197;SDS011;8715;51.010;6.812;2023-10-13T06:14:36;952.05;;;878.92;;
17197;SDS011;8715;51.010;6.812;2023-10-13T06:17:39;951.67;;;879.10;;
17197;SDS011;8715;51.010;6.812;2023-10-13T06:20:44;950.13;;;877.97;;
17197;SDS011;8715;51.010;6.812;2023-10-13T06:23:46;954.40;;;881.47;;
17197;SDS011;8715;51.010;6.812;2023-10-13T06:26:49;949.75;;;876.88;;
17197;SDS011;8715;51.010;6.812;2023-10-13T06:29:48;953.53;;;880.40;;
17197;SDS011;8715;51.010;6.812;2023-10-13T06:32:34;952.60;;;879.13;;
17197;SDS011;8715;51.010;6.812;2023-10-13T06:35:21;954.92;;;881.22;;
17197;SDS011;8715;51.010;6.812;2023-10-13T06:38:09;953.58;;;880.33;;
17197;SDS011;8715;51.010;6.812;2023-10-13T06:41:04;951.72;;;878.47;;
17197;SDS011;8715;51.010;6.812;2023-10-13T06:43:50;957.90;;;884.20;;
17197;SDS011;8715;51.010;6.812;2023-10-13T06:46:43;953.35;;;880.03;;
17197;SDS011;8715;51.010;6.812;2023-10-13T06:49:28;956.55;;;883.03;;
17197;SDS011;8715;51.010;6.812;2023-10-13T06:52:13;952.72;;;879.53;;
17197;SDS011;8715;51.010;6.812;2023-10-13T06:55:01;952.60;;;879.33;;
17197;SDS011;8715;51.010;6.812;2023-10-13T06:57:48;956.80;;;882.60;;
17197;SDS011;8715;51.010;6.812;2023-10-13T07:00:35;957.63;;;883.60;;
17197;SDS011;8715;51.010;6.812;2023-10-13T07:03:21;955.65;;;881.10;;
17197;SDS011;8715;51.010;6.812;2023-10-13T07:06:08;957.67;;;882.97;;
17197;SDS011;8715;51.010;6.812;2023-10-13T07:08:55;961.47;;;886.88;;
17197;SDS011;8715;51.010;6.812;2023-10-13T07:11:42;958.20;;;883.53;;
17197;SDS011;8715;51.010;6.812;2023-10-13T07:14:27;958.45;;;883.75;;
17197;SDS011;8715;51.010;6.812;2023-10-13T07:17:12;956.83;;;882.13;;
17197;SDS011;8715;51.010;6.812;2023-10-13T07:20:07;954.40;;;880.03;;
17197;SDS011;8715;51.010;6.812;2023-10-13T07:23:00;957.30;;;882.40;;
17197;SDS011;8715;51.010;6.812;2023-10-13T07:25:51;957.55;;;882.30;;
17197;SDS011;8715;51.010;6.812;2023-10-13T07:28:39;960.22;;;884.38;;
17197;SDS011;8715;51.010;6.812;2023-10-13T07:31:27;957.50;;;882.05;;
17197;SDS011;8715;51.010;6.812;2023-10-13T07:34:12;961.08;;;885.40;;
17197;SDS011;8715;51.010;6.812;2023-10-13T07:37:05;961.88;;;886.50;;
17197;SDS011;8715;51.010;6.812;2023-10-13T07:39:53;960.47;;;884.65;;
17197;SDS011;8715;51.010;6.812;2023-10-13T07:42:41;961.47;;;885.67;;
17197;SDS011;8715;51.010;6.812;2023-10-13T07:45:28;963.00;;;887.08;;
17197;SDS011;8715;51.010;6.812;2023-10-13T07:48:19;963.30;;;887.17;;
17197;SDS011;8715;51.010;6.812;2023-10-13T07:51:05;961.88;;;885.42;;
17197;SDS011;8715;51.010;6.812;2023-10-13T07:53:55;961.15;;;885.35;;
17197;SDS011;8715;51.010;6.812;2023-10-13T07:56:40;961.83;;;885.45;;
17197;SDS011;8715;51.010;6.812;2023-10-13T07:59:25;963.42;;;886.65;;
17197;SDS011;8715;51.010;6.812;2023-10-13T08:02:13;965.90;;;888.47;;
17197;SDS011;8715;51.010;6.812;2023-10-13T08:05:17;965.10;;;888.15;;
17197;SDS011;8715;51.010;6.812;2023-10-13T08:08:09;963.20;;;886.78;;
17197;SDS011;8715;51.010;6.812;2023-10-13T08:10:58;967.08;;;889.67;;
17197;SDS011;8715;51.010;6.812;2023-10-13T08:13:52;965.78;;;888.00;;
17197;SDS011;8715;51.010;6.812;2023-10-13T08:16:41;963.17;;;885.10;;
17197;SDS011;8715;51.010;6.812;2023-10-13T08:19:38;962.08;;;885.15;;
17197;SDS011;8715;51.010;6.812;2023-10-13T08:22:28;961.55;;;884.15;;
17197;SDS011;8715;51.010;6.812;2023-10-13T08:25:19;965.08;;;887.05;;
17197;SDS011;8715;51.010;6.812;2023-10-13T08:28:29;964.03;;;886.40;;
17197;SDS011;8715;51.010;6.812;2023-10-13T08:31:37;964.78;;;887.35;;
17197;SDS011;8715;51.010;6.812;2023-10-13T08:34:25;963.78;;;886.38;;
17197;SDS011;8715;51.010;6.812;2023-10-13T08:37:15;966.60;;;888.20;;
17197;SDS011;8715;51.010;6.812;2023-10-13T08:40:12;970.00;;;891.17;;
17197;SDS011;8715;51.010;6.812;2023-10-13T08:43:27;969.97;;;890.60;;
17197;SDS011;8715;51.010;6.812;2023-10-13T08:46:23;961.20;;;884.53;;
17197;SDS011;8715;51.010;6.812;2023-10-13T08:49:13;969.63;;;890.78;;
17197;SDS011;8715;51.010;6.812;2023-10-13T08:52:01;971.25;;;891.28;;
17197;SDS011;8715;51.010;6.812;2023-10-13T08:55:11;969.20;;;890.10;;
17197;SDS011;8715;51.010;6.812;2023-10-13T08:58:19;971.40;;;891.85;;
17197;SDS011;8715;51.010;6.812;2023-10-13T09:01:08;973.70;;;893.63;;
17197;SDS011;8715;51.010;6.812;2023-10-13T09:03:55;973.03;;;892.38;;
17197;SDS011;8715;51.010;6.812;2023-10-13T09:07:01;975.75;;;895.17;;
17197;SDS011;8715;51.010;6.812;2023-10-13T09:09:59;977.15;;;895.33;;
17197;SDS011;8715;51.010;6.812;2023-10-13T09:12:56;982.03;;;899.28;;
17197;SDS011;8715;51.010;6.812;2023-10-13T09:15:44;977.75;;;894.75;;
17197;SDS011;8715;51.010;6.812;2023-10-13T09:18:45;982.42;;;899.65;;
17197;SDS011;8715;51.010;6.812;2023-10-13T09:21:30;981.67;;;898.70;;
17197;SDS011;8715;51.010;6.812;2023-10-13T09:24:32;979.83;;;897.15;;
17197;SDS011;8715;51.010;6.812;2023-10-13T09:27:19;979.92;;;896.85;;
17197;SDS011;8715;51.010;6.812;2023-10-13T09:30:06;982.15;;;898.67;;
17197;SDS011;8715;51.010;6.812;2023-10-13T09:32:59;979.45;;;896.20;;
17197;SDS011;8715;51.010;6.812;2023-10-13T09:35:45;982.38;;;899.10;;
17197;SDS011;8715;51.010;6.812;2023-10-13T09:41:18;978.15;;;895.88;;
17197;SDS011;8715;51.010;6.812;2023-10-13T09:44:09;983.75;;;899.95;;
17197;SDS011;8715;51.010;6.812;2023-10-13T09:46:56;980.80;;;897.08;;
17197;SDS011;8715;51.010;6.812;2023-10-13T09:49:51;980.20;;;897.20;;
17197;SDS011;8715;51.010;6.812;2023-10-13T09:52:41;980.63;;;897.42;;
17197;SDS011;8715;51.010;6.812;2023-10-13T09:55:27;979.95;;;896.58;;
17197;SDS011;8715;51.010;6.812;2023-10-13T09:58:16;981.78;;;898.03;;
17197;SDS011;8715;51.010;6.812;2023-10-13T10:01:02;986.88;;;902.00;;
17197;SDS011;8715;51.010;6.812;2023-10-13T10:03:54;983.90;;;899.42;;
17197;SDS011;8715;51.010;6.812;2023-10-13T10:06:51;984.53;;;900.00;;
17197;SDS011;8715;51.010;6.812;2023-10-13T10:09:37;986.65;;;901.45;;
17197;SDS011;8715;51.010;6.812;2023-10-13T10:12:25;989.75;;;904.35;;
17197;SDS011;8715;51.010;6.812;2023-10-13T10:15:20;988.45;;;903.03;;
17197;SDS011;8715;51.010;6.812;2023-10-13T10:18:17;988.17;;;901.88;;
17197;SDS011;8715;51.010;6.812;2023-10-13T10:21:06;989.72;;;904.05;;
17197;SDS011;8715;51.010;6.812;2023-10-13T10:23:52;991.63;;;904.70;;
17197;SDS011;8715;51.010;6.812;2023-10-13T10:26:38;989.28;;;902.75;;
17197;SDS011;8715;51.010;6.812;2023-10-13T10:29:23;987.50;;;901.17;;
17197;SDS011;8715;51.010;6.812;2023-10-13T10:32:12;995.03;;;906.95;;
17197;SDS011;8715;51.010;6.812;2023-10-13T10:35:02;992.13;;;904.88;;
17197;SDS011;8715;51.010;6.812;2023-10-13T10:37:52;991.10;;;903.22;;
17197;SDS011;8715;51.010;6.812;2023-10-13T10:40:51;992.25;;;905.35;;
17197;SDS011;8715;51.010;6.812;2023-10-13T10:43:40;990.15;;;902.80;;
17197;SDS011;8715;51.010;6.812;2023-10-13T10:46:29;991.78;;;904.38;;
17197;SDS011;8715;51.010;6.812;2023-10-13T10:49:21;991.78;;;903.72;;
17197;SDS011;8715;51.010;6.812;2023-10-13T10:52:15;993.08;;;905.67;;
17197;SDS011;8715;51.010;6.812;2023-10-13T10:55:04;990.75;;;903.00;;
17197;SDS011;8715;51.010;6.812;2023-10-13T10:57:58;991.03;;;903.47;;
17197;SDS011;8715;51.010;6.812;2023-10-13T11:00:44;990.88;;;902.90;;
17197;SDS011;8715;51.010;6.812;2023-10-13T11:03:33;989.70;;;902.53;;
17197;SDS011;8715;51.010;6.812;2023-10-13T11:06:21;995.67;;;907.03;;
17197;SDS011;8715;51.010;6.812;2023-10-13T11:09:08;995.03;;;906.83;;
17197;SDS011;8715;51.010;6.812;2023-10-13T11:12:10;995.17;;;906.67;;
17197;SDS011;8715;51.010;6.812;2023-10-13T11:15:00;998.58;;;909.50;;
17197;SDS011;8715;51.010;6.812;2023-10-13T11:17:48;995.85;;;906.80;;
17197;SDS011;8715;51.010;6.812;2023-10-13T11:20:35;992.30;;;903.35;;
17197;SDS011;8715;51.010;6.812;2023-10-13T11:23:27;997.53;;;908.70;;
17197;SDS011;8715;51.010;6.812;2023-10-13T11:26:13;995.05;;;906.60;;
17197;SDS011;8715;51.010;6.812;2023-10-13T11:28:59;994.95;;;906.78;;
17197;SDS011;8715;51.010;6.812;2023-10-13T11:31:48;996.97;;;908.33;;
17197;SDS011;8715;51.010;6.812;2023-10-13T11:34:42;995.03;;;907.28;;
17197;SDS011;8715;51.010;6.812;2023-10-13T11:37:28;994.42;;;906.70;;
17197;SDS011;8715;51.010;6.812;2023-10-13T11:40:21;992.92;;;905.63;;
17197;SDS011;8715;51.010;6.812;2023-10-13T11:43:26;992.03;;;904.53;;
17197;SDS011;8715;51.010;6.812;2023-10-13T11:46:17;993.47;;;906.13;;
17197;SDS011;8715;51.010;6.812;2023-10-13T11:49:22;991.40;;;904.35;;
17197;SDS011;8715;51.010;6.812;2023-10-13T11:52:20;990.10;;;903.40;;
17197;SDS011;8715;51.010;6.812;2023-10-13T11:55:10;992.47;;;905.47;;
17197;SDS011;8715;51.010;6.812;2023-10-13T11:57:55;992.75;;;905.50;;
17197;SDS011;8715;51.010;6.812;2023-10-13T12:00:43;990.08;;;903.42;;
17197;SDS011;8715;51.010;6.812;2023-10-13T12:03:46;989.97;;;903.63;;
17197;SDS011;8715;51.010;6.812;2023-10-13T12:06:50;990.30;;;903.97;;
17197;SDS011;8715;51.010;6.812;2023-10-13T12:09:47;989.35;;;902.25;;
17197;SDS011;8715;51.010;6.812;2023-10-13T12:12:50;987.97;;;901.05;;
17197;SDS011;8715;51.010;6.812;2023-10-13T12:15:38;991.72;;;904.70;;
17197;SDS011;8715;51.010;6.812;2023-10-13T12:18:32;993.35;;;905.95;;
17197;SDS011;8715;51.010;6.812;2023-10-13T12:21:18;986.10;;;900.15;;
17197;SDS011;8715;51.010;6.812;2023-10-13T12:24:05;986.22;;;900.53;;
17197;SDS011;8715;51.010;6.812;2023-10-13T12:26:56;984.75;;;899.72;;
17197;SDS011;8715;51.010;6.812;2023-10-13T12:29:41;986.03;;;900.55;;
17197;SDS011;8715;51.010;6.812;2023-10-13T12:32:30;986.20;;;900.05;;
17197;SDS011;8715;51.010;6.812;2023-10-13T12:35:15;987.35;;;901.50;;
17197;SDS011;8715;51.010;6.812;2023-10-13T12:38:15;986.95;;;901.47;;
17197;SDS011;8715;51.010;6.812;2023-10-13T12:41:20;988.03;;;902.28;;
17197;SDS011;8715;51.010;6.812;2023-10-13T12:44:23;987.42;;;902.05;;
17197;SDS011;8715;51.010;6.812;2023-10-13T12:47:27;987.70;;;902.03;;
17197;SDS011;8715;51.010;6.812;2023-10-13T12:50:30;986.38;;;900.60;;
17197;SDS011;8715;51.010;6.812;2023-10-13T12:53:29;988.38;;;902.53;;
17197;SDS011;8715;51.010;6.812;2023-10-13T12:56:15;986.47;;;900.85;;
17197;SDS011;8715;51.010;6.812;2023-10-13T12:59:00;987.15;;;901.75;;
17197;SDS011;8715;51.010;6.812;2023-10-13T13:01:52;988.42;;;902.40;;
17197;SDS011;8715;51.010;6.812;2023-10-13T13:04:38;988.83;;;902.70;;
17197;SDS011;8715;51.010;6.812;2023-10-13T13:07:27;985.88;;;900.22;;
17197;SDS011;8715;51.010;6.812;2023-10-13T13:10:15;990.08;;;903.50;;
17197;SDS011;8715;51.010;6.812;2023-10-13T13:13:01;986.33;;;901.30;;
17197;SDS011;8715;51.010;6.812;2023-10-13T13:18:33;987.88;;;902.55;;
17197;SDS011;8715;51.010;6.812;2023-10-13T13:21:18;982.05;;;897.22;;
17197;SDS011;8715;51.010;6.812;2023-10-13T13:24:06;986.13;;;900.92;;
17197;SDS011;8715;51.010;6.812;2023-10-13T13:26:55;987.97;;;902.25;;
17197;SDS011;8715;51.010;6.812;2023-10-13T13:29:45;985.97;;;900.58;;
17197;SDS011;8715;51.010;6.812;2023-10-13T13:32:30;987.13;;;901.67;;
17197;SDS011;8715;51.010;6.812;2023-10-13T13:35:15;988.45;;;902.33;;
17197;SDS011;8715;51.010;6.812;2023-10-13T13:38:02;987.30;;;902.13;;
17197;SDS011;8715;51.010;6.812;2023-10-13T13:40:53;987.60;;;902.55;;
17197;SDS011;8715;51.010;6.812;2023-10-13T13:43:40;985.10;;;899.97;;
17197;SDS011;8715;51.010;6.812;2023-10-13T13:46:38;984.10;;;899.67;;
17197;SDS011;8715;51.010;6.812;2023-10-13T13:49:24;982.40;;;897.42;;
17197;SDS011;8715;51.010;6.812;2023-10-13T13:52:23;982.03;;;897.83;;
17197;SDS011;8715;51.010;6.812;2023-10-13T13:55:17;989.38;;;903.78;;
17197;SDS011;8715;51.010;6.812;2023-10-13T13:58:02;982.58;;;898.15;;
17197;SDS011;8715;51.010;6.812;2023-10-13T14:00:58;979.40;;;895.30;;
17197;SDS011;8715;51.010;6.812;2023-10-13T14:03:44;984.35;;;900.13;;
17197;SDS011;8715;51.010;6.812;2023-10-13T14:06:30;980.72;;;896.22;;
17197;SDS011;8715;51.010;6.812;2023-10-13T14:09:16;981.40;;;897.47;;
17197;SDS011;8715;51.010;6.812;2023-10-13T14:12:17;984.05;;;898.97;;
17197;SDS011;8715;51.010;6.812;2023-10-13T14:15:13;979.35;;;895.03;;
17197;SDS011;8715;51.010;6.812;2023-10-13T14:18:08;976.00;;;890.97;;
17197;SDS011;8715;51.010;6.812;2023-10-13T14:20:58;986.38;;;901.40;;
17197;SDS011;8715;51.010;6.812;2023-10-13T14:23:47;984.33;;;900.05;;
17197;SDS011;8715;51.010;6.812;2023-10-13T14:26:35;983.33;;;899.15;;
17197;SDS011;8715;51.010;6.812;2023-10-13T14:29:20;982.08;;;897.65;;
17197;SDS011;8715;51.010;6.812;2023-10-13T14:32:10;983.95;;;899.53;;
17197;SDS011;8715;51.010;6.812;2023-10-13T14:34:58;983.70;;;899.10;;
17197;SDS011;8715;51.010;6.812;2023-10-13T14:37:44;981.95;;;897.20;;
17197;SDS011;8715;51.010;6.812;2023-10-13T14:40:29;984.38;;;899.85;;
17197;SDS011;8715;51.010;6.812;2023-10-13T14:43:14;983.78;;;899.63;;
17197;SDS011;8715;51.010;6.812;2023-10-13T14:46:00;981.83;;;897.92;;
17197;SDS011;8715;51.010;6.812;2023-10-13T14:48:45;980.08;;;895.97;;
17197;SDS011;8715;51.010;6.812;2023-10-13T14:51:34;983.22;;;899.67;;
17197;SDS011;8715;51.010;6.812;2023-10-13T14:54:23;979.88;;;896.83;;
17197;SDS011;8715;51.010;6.812;2023-10-13T14:57:17;982.70;;;898.03;;
17197;SDS011;8715;51.010;6.812;2023-10-13T15:00:08;982.88;;;898.72;;
17197;SDS011;8715;51.010;6.812;2023-10-13T15:02:56;980.58;;;897.00;;
17197;SDS011;8715;51.010;6.812;2023-10-13T15:05:44;982.45;;;898.47;;
17197;SDS011;8715;51.010;6.812;2023-10-13T15:08:31;981.78;;;898.10;;
17197;SDS011;8715;51.010;6.812;2023-10-13T15:11:16;982.78;;;899.40;;
17197;SDS011;8715;51.010;6.812;2023-10-13T15:14:03;978.80;;;895.83;;
17197;SDS011;8715;51.010;6.812;2023-10-13T15:16:50;978.60;;;895.78;;
17197;SDS011;8715;51.010;6.812;2023-10-13T15:19:36;978.58;;;895.08;;
17197;SDS011;8715;51.010;6.812;2023-10-13T15:22:22;982.78;;;899.08;;
17197;SDS011;8715;51.010;6.812;2023-10-13T15:25:12;979.38;;;896.33;;
17197;SDS011;8715;51.010;6.812;2023-10-13T15:28:12;982.90;;;899.50;;
17197;SDS011;8715;51.010;6.812;2023-10-13T15:30:57;979.20;;;896.65;;
17197;SDS011;8715;51.010;6.812;2023-10-13T15:33:54;978.03;;;895.13;;
17197;SDS011;8715;51.010;6.812;2023-10-13T15:36:40;979.58;;;896.53;;
17197;SDS011;8715;51.010;6.812;2023-10-13T15:39:26;981.78;;;898.88;;
17197;SDS011;8715;51.010;6.812;2023-10-13T15:42:16;979.58;;;896.22;;
17197;SDS011;8715;51.010;6.812;2023-10-13T15:45:02;982.17;;;898.78;;
17197;SDS011;8715;51.010;6.812;2023-10-13T15:48:00;979.13;;;896.10;;
17197;SDS011;8715;51.010;6.812;2023-10-13T15:50:48;980.47;;;897.47;;
17197;SDS011;8715;51.010;6.812;2023-10-13T15:53:33;979.55;;;896.95;;
17197;SDS011;8715;51.010;6.812;2023-10-13T15:56:19;978.08;;;896.15;;
17197;SDS011;8715;51.010;6.812;2023-10-13T15:59:06;981.45;;;898.90;;
17197;SDS011;8715;51.010;6.812;2023-10-13T16:01:51;980.67;;;897.90;;
17197;SDS011;8715;51.010;6.812;2023-10-13T16:04:41;978.63;;;896.33;;
17197;SDS011;8715;51.010;6.812;2023-10-13T16:07:28;979.42;;;896.85;;
17197;SDS011;8715;51.010;6.812;2023-10-13T16:10:13;977.60;;;895.30;;
17197;SDS011;8715;51.010;6.812;2023-10-13T16:12:58;980.95;;;897.80;;
17197;SDS011;8715;51.010;6.812;2023-10-13T16:15:45;979.83;;;897.28;;
17197;SDS011;8715;51.010;6.812;2023-10-13T16:18:31;977.00;;;894.75;;
17197;SDS011;8715;51.010;6.812;2023-10-13T16:21:17;978.47;;;896.17;;
17197;SDS011;8715;51.010;6.812;2023-10-13T16:24:03;980.13;;;897.08;;
17197;SDS011;8715;51.010;6.812;2023-10-13T16:26:49;975.90;;;894.00;;
17197;SDS011;8715;51.010;6.812;2023-10-13T16:29:36;978.17;;;895.67;;
17197;SDS011;8715;51.010;6.812;2023-10-13T16:32:27;976.97;;;894.58;;
17197;SDS011;8715;51.010;6.812;2023-10-13T16:35:14;977.47;;;895.28;;